Airfield :
LOGIN :

Register | Disclaimer

   EN    FR    IT 

 










Legend :    VFR   Marginal VFR   IFR   Intensive IFR   Very Intensive IFR
Visi :
Ceiling :
>= 8 km
>= 3000ft
5 to 8 km
1000 to 3000 ft
1500m to 5 km
500 to 1000 ft
800 to 1500m
200 to 500 ft
< 800m
< 200 ft
Symbols :   Thunderstorms  Fog  Heavy snow  Heavy precipitations  Wind > 20 kt
SIGMETs :     Misc.  Thunderstorms  Icing  Turbulence  Mountain Waves  Volcanic Ashes






- Airport Elevation : 408 ft
- IATA code : SOB


LHSM - Sarmellek Balaton

CURRENT METAR :
  • 280645Z AUTO 16006KT 6000 OVC008 04/03 Q1023 NOSIG

EXPIRED METARs :
  • 280615Z AUTO 17003KT 2900 BR BKN008 BKN030 04/03 Q1023 NOSIG
  • 280545Z AUTO 15002KT 4900 BR BKN005 BKN024 04/04 Q1023
  • 280515Z AUTO 19001KT 5000 BR FEW005 BKN023 04/04 Q1023
  • 280445Z AUTO 00000KT 5000 BR OVC023 04/04 Q1023

TAF TAF LHSM
Valid from the 28 at 06:00 until the 28 at 15:00 UTC


280515Z 2806/2815 VRB02KT 7000 OVC020
BECMG 2806/2809 15008KT
TEMPO 2806/2809 3000 BR BKN007 BKN020



MET'MAP, your aeronautical weather chart ! - Copyright ORBIFLY December 2007 - Disclaimer

ORBIFLY MET'MAP TEAM :

Programming & Development : Alexandra Zaïnal
Original concept : Baudouin d'Aumeries
Technical & hardware support : Manuel Goepfert
Assistance : Marc-Olivier Méhu




SOURCES & CREDITS :

   NOAA